sensor_id;sensor_type;location;lat;lon;timestamp;pressure;altitude;pressure_sealevel;temperature;humidity
27643;BME280;15053;48.618;10.024;2022-12-29T00:00:05;93934.06;;;7.18;72.38
27643;BME280;15053;48.618;10.024;2022-12-29T00:02:38;93921.66;;;7.14;72.45
27643;BME280;15053;48.618;10.024;2022-12-29T00:05:05;93934.06;;;7.18;72.79
27643;BME280;15053;48.618;10.024;2022-12-29T00:07:31;93921.09;;;7.18;72.47
27643;BME280;15053;48.618;10.024;2022-12-29T00:09:58;93925.25;;;7.19;72.47
27643;BME280;15053;48.618;10.024;2022-12-29T00:12:24;93921.63;;;7.20;72.88
27643;BME280;15053;48.618;10.024;2022-12-29T00:14:51;93905.09;;;7.16;72.54
27643;BME280;15053;48.618;10.024;2022-12-29T00:17:36;93901.91;;;7.24;72.26
27643;BME280;15053;48.618;10.024;2022-12-29T00:20:02;93906.28;;;7.23;73.01
27643;BME280;15053;48.618;10.024;2022-12-29T00:23:04;93915.63;;;7.24;72.67
27643;BME280;15053;48.618;10.024;2022-12-29T00:25:49;93917.16;;;7.25;72.26
27643;BME280;15053;48.618;10.024;2022-12-29T00:28:34;93908.63;;;7.25;72.58
27643;BME280;15053;48.618;10.024;2022-12-29T00:31:19;93917.66;;;7.27;72.03
27643;BME280;15053;48.618;10.024;2022-12-29T00:34:04;93913.25;;;7.28;71.47
27643;BME280;15053;48.618;10.024;2022-12-29T00:36:49;93915.56;;;7.29;71.84
27643;BME280;15053;48.618;10.024;2022-12-29T00:39:17;93910.63;;;7.33;71.94
27643;BME280;15053;48.618;10.024;2022-12-29T00:42:07;93911.09;;;7.35;71.25
27643;BME280;15053;48.618;10.024;2022-12-29T00:44:53;93915.25;;;7.36;71.66
27643;BME280;15053;48.618;10.024;2022-12-29T00:47:19;93898.38;;;7.38;70.69
27643;BME280;15053;48.618;10.024;2022-12-29T00:49:46;93906.66;;;7.40;70.75
27643;BME280;15053;48.618;10.024;2022-12-29T00:52:13;93902.25;;;7.41;71.35
27643;BME280;15053;48.618;10.024;2022-12-29T00:54:40;93898.34;;;7.43;70.81
27643;BME280;15053;48.618;10.024;2022-12-29T00:57:09;93895.44;;;7.45;70.98
27643;BME280;15053;48.618;10.024;2022-12-29T00:59:37;93898.03;;;7.45;71.13
27643;BME280;15053;48.618;10.024;2022-12-29T01:02:04;93898.03;;;7.45;70.17
27643;BME280;15053;48.618;10.024;2022-12-29T01:04:31;93906.34;;;7.47;71.04
27643;BME280;15053;48.618;10.024;2022-12-29T01:06:58;93912.25;;;7.47;70.26
27643;BME280;15053;48.618;10.024;2022-12-29T01:09:24;93902.69;;;7.48;69.65
27643;BME280;15053;48.618;10.024;2022-12-29T01:12:10;93916.13;;;7.50;70.20
27643;BME280;15053;48.618;10.024;2022-12-29T01:14:37;93919.47;;;7.50;70.66
27643;BME280;15053;48.618;10.024;2022-12-29T01:17:05;93928.81;;;7.51;69.62
27643;BME280;15053;48.618;10.024;2022-12-29T01:19:32;93928.81;;;7.51;69.58
27643;BME280;15053;48.618;10.024;2022-12-29T01:21:59;93928.53;;;7.53;69.10
27643;BME280;15053;48.618;10.024;2022-12-29T01:24:26;93926.78;;;7.48;68.22
27643;BME280;15053;48.618;10.024;2022-12-29T01:26:53;93923.88;;;7.55;68.93
27643;BME280;15053;48.618;10.024;2022-12-29T01:29:21;93924.41;;;7.52;68.64
27643;BME280;15053;48.618;10.024;2022-12-29T01:31:47;93927.00;;;7.52;68.13
27643;BME280;15053;48.618;10.024;2022-12-29T01:34:15;93924.66;;;7.50;68.81
27643;BME280;15053;48.618;10.024;2022-12-29T01:36:43;93918.00;;;7.44;69.05
27643;BME280;15053;48.618;10.024;2022-12-29T01:39:11;93923.41;;;7.48;69.13
27643;BME280;15053;48.618;10.024;2022-12-29T01:41:39;93920.81;;;7.48;68.60
27643;BME280;15053;48.618;10.024;2022-12-29T01:47:10;93923.47;;;7.43;68.28
27643;BME280;15053;48.618;10.024;2022-12-29T01:49:37;93927.88;;;7.42;68.45
27643;BME280;15053;48.618;10.024;2022-12-29T01:52:06;93926.03;;;7.43;68.78
27643;BME280;15053;48.618;10.024;2022-12-29T01:54:37;93924.22;;;7.43;68.33
27643;BME280;15053;48.618;10.024;2022-12-29T01:57:10;93924.22;;;7.43;67.77
27643;BME280;15053;48.618;10.024;2022-12-29T01:59:46;93910.81;;;7.36;67.71
27643;BME280;15053;48.618;10.024;2022-12-29T02:02:16;93912.59;;;7.41;67.45
27643;BME280;15053;48.618;10.024;2022-12-29T02:04:43;93918.75;;;7.45;68.36
27643;BME280;15053;48.618;10.024;2022-12-29T02:07:17;93923.19;;;7.44;67.74
27643;BME280;15053;48.618;10.024;2022-12-29T02:09:47;93916.94;;;7.45;67.94
27643;BME280;15053;48.618;10.024;2022-12-29T02:12:15;93903.03;;;7.41;67.49
27643;BME280;15053;48.618;10.024;2022-12-29T02:14:43;93908.41;;;7.45;67.45
27643;BME280;15053;48.618;10.024;2022-12-29T02:17:41;93915.38;;;7.49;67.98
27643;BME280;15053;48.618;10.024;2022-12-29T02:23:36;93908.34;;;7.50;67.42
27643;BME280;15053;48.618;10.024;2022-12-29T02:29:40;93908.34;;;7.50;68.35
27643;BME280;15053;48.618;10.024;2022-12-29T02:35:34;93897.50;;;7.48;68.84
27643;BME280;15053;48.618;10.024;2022-12-29T02:38:19;93901.91;;;7.47;68.25
27643;BME280;15053;48.618;10.024;2022-12-29T02:41:03;93898.56;;;7.47;68.58
27643;BME280;15053;48.618;10.024;2022-12-29T02:43:38;93878.38;;;7.44;68.74
27643;BME280;15053;48.618;10.024;2022-12-29T02:46:17;93892.31;;;7.48;68.10
27643;BME280;15053;48.618;10.024;2022-12-29T02:48:51;93894.66;;;7.49;68.23
27643;BME280;15053;48.618;10.024;2022-12-29T02:51:24;93891.75;;;7.51;68.13
27643;BME280;15053;48.618;10.024;2022-12-29T02:53:53;93894.09;;;7.52;68.18
27643;BME280;15053;48.618;10.024;2022-12-29T02:56:40;93897.44;;;7.53;68.37
27643;BME280;15053;48.618;10.024;2022-12-29T02:59:07;93886.81;;;7.54;68.76
27643;BME280;15053;48.618;10.024;2022-12-29T03:04:19;93884.16;;;7.59;68.25
27643;BME280;15053;48.618;10.024;2022-12-29T03:07:08;93884.94;;;7.60;67.99
27643;BME280;15053;48.618;10.024;2022-12-29T03:09:49;93885.19;;;7.58;68.17
27643;BME280;15053;48.618;10.024;2022-12-29T03:15:41;93867.84;;;7.59;67.51
27643;BME280;15053;48.618;10.024;2022-12-29T03:21:19;93860.59;;;7.56;67.96
27643;BME280;15053;48.618;10.024;2022-12-29T03:24:10;93862.41;;;7.55;67.28
27643;BME280;15053;48.618;10.024;2022-12-29T03:26:37;93852.06;;;7.55;67.90
27643;BME280;15053;48.618;10.024;2022-12-29T03:29:05;93842.00;;;7.54;67.30
27643;BME280;15053;48.618;10.024;2022-12-29T03:31:35;93840.16;;;7.54;67.48
27643;BME280;15053;48.618;10.024;2022-12-29T03:34:05;93845.63;;;7.53;67.84
27643;BME280;15053;48.618;10.024;2022-12-29T03:36:40;93850.06;;;7.52;67.11
27643;BME280;15053;48.618;10.024;2022-12-29T03:39:12;93846.16;;;7.50;67.46
27643;BME280;15053;48.618;10.024;2022-12-29T03:41:42;93849.53;;;7.50;67.45
27643;BME280;15053;48.618;10.024;2022-12-29T03:44:12;93850.38;;;7.46;67.07
27643;BME280;15053;48.618;10.024;2022-12-29T03:46:39;93869.00;;;7.48;66.42
27643;BME280;15053;48.618;10.024;2022-12-29T03:49:06;93864.88;;;7.47;66.82
27643;BME280;15053;48.618;10.024;2022-12-29T03:51:32;93858.94;;;7.46;66.96
27643;BME280;15053;48.618;10.024;2022-12-29T03:53:59;93861.22;;;7.48;67.01
27643;BME280;15053;48.618;10.024;2022-12-29T03:56:26;93854.00;;;7.45;66.78
27643;BME280;15053;48.618;10.024;2022-12-29T03:58:52;93854.50;;;7.47;66.74
27643;BME280;15053;48.618;10.024;2022-12-29T04:01:27;93860.44;;;7.47;66.87
27643;BME280;15053;48.618;10.024;2022-12-29T04:03:54;93854.50;;;7.47;66.43
27643;BME280;15053;48.618;10.024;2022-12-29T04:06:20;93840.50;;;7.48;66.98
27643;BME280;15053;48.618;10.024;2022-12-29T04:08:59;93831.19;;;7.47;66.45
27643;BME280;15053;48.618;10.024;2022-12-29T04:11:28;93840.31;;;7.44;66.88
27643;BME280;15053;48.618;10.024;2022-12-29T04:14:00;93841.03;;;7.45;66.46
27643;BME280;15053;48.618;10.024;2022-12-29T04:16:29;93838.97;;;7.47;66.44
27643;BME280;15053;48.618;10.024;2022-12-29T04:18:56;93840.78;;;7.46;66.45
27643;BME280;15053;48.618;10.024;2022-12-29T04:21:22;93843.94;;;7.43;66.37
27643;BME280;15053;48.618;10.024;2022-12-29T04:23:48;93844.91;;;7.47;66.45
27643;BME280;15053;48.618;10.024;2022-12-29T04:26:16;93840.50;;;7.48;66.71
27643;BME280;15053;48.618;10.024;2022-12-29T04:28:51;93839.22;;;7.45;66.70
27643;BME280;15053;48.618;10.024;2022-12-29T04:31:32;93843.16;;;7.43;66.66
27643;BME280;15053;48.618;10.024;2022-12-29T04:34:00;93843.69;;;7.40;66.49
27643;BME280;15053;48.618;10.024;2022-12-29T04:36:27;93834.66;;;7.37;66.18
27643;BME280;15053;48.618;10.024;2022-12-29T04:38:56;93838.59;;;7.35;66.41
27643;BME280;15053;48.618;10.024;2022-12-29T04:41:23;93840.16;;;7.31;66.46
27643;BME280;15053;48.618;10.024;2022-12-29T04:43:50;93838.66;;;7.30;66.10
27643;BME280;15053;48.618;10.024;2022-12-29T04:46:49;93835.06;;;7.26;66.55
27643;BME280;15053;48.618;10.024;2022-12-29T04:49:28;93829.94;;;7.21;66.10
27643;BME280;15053;48.618;10.024;2022-12-29T04:52:20;93842.94;;;7.16;66.59
27643;BME280;15053;48.618;10.024;2022-12-29T04:54:46;93839.13;;;7.08;66.51
27643;BME280;15053;48.618;10.024;2022-12-29T04:57:17;93844.81;;;7.10;66.88
27643;BME280;15053;48.618;10.024;2022-12-29T04:59:49;93848.16;;;7.10;66.65
27643;BME280;15053;48.618;10.024;2022-12-29T05:02:16;93846.91;;;7.08;66.98
27643;BME280;15053;48.618;10.024;2022-12-29T05:04:45;93851.84;;;7.04;67.04
27643;BME280;15053;48.618;10.024;2022-12-29T05:07:14;93861.16;;;7.05;66.75
27643;BME280;15053;48.618;10.024;2022-12-29T05:09:42;93863.53;;;7.02;67.47
27643;BME280;15053;48.618;10.024;2022-12-29T05:12:09;93871.56;;;7.00;67.28
27643;BME280;15053;48.618;10.024;2022-12-29T05:14:43;93863.78;;;7.00;66.91
27643;BME280;15053;48.618;10.024;2022-12-29T05:17:10;93863.28;;;6.98;67.11
27643;BME280;15053;48.618;10.024;2022-12-29T05:19:37;93854.56;;;6.94;67.32
27643;BME280;15053;48.618;10.024;2022-12-29T05:22:05;93850.91;;;6.95;67.50
27643;BME280;15053;48.618;10.024;2022-12-29T05:24:33;93845.78;;;6.90;68.07
27643;BME280;15053;48.618;10.024;2022-12-29T05:26:59;93852.28;;;6.88;67.65
27643;BME280;15053;48.618;10.024;2022-12-29T05:29:45;93856.97;;;6.86;67.96
27643;BME280;15053;48.618;10.024;2022-12-29T05:32:11;93850.50;;;6.83;68.78
27643;BME280;15053;48.618;10.024;2022-12-29T05:34:38;93853.09;;;6.83;68.68
27643;BME280;15053;48.618;10.024;2022-12-29T05:37:05;93858.53;;;6.82;68.11
27643;BME280;15053;48.618;10.024;2022-12-29T05:39:31;93853.16;;;6.78;68.10
27643;BME280;15053;48.618;10.024;2022-12-29T05:42:00;93861.94;;;6.77;68.84
27643;BME280;15053;48.618;10.024;2022-12-29T05:44:36;93871.03;;;6.75;69.37
27643;BME280;15053;48.618;10.024;2022-12-29T05:47:15;93869.75;;;6.72;68.96
27643;BME280;15053;48.618;10.024;2022-12-29T05:49:55;93874.94;;;6.72;69.47
27643;BME280;15053;48.618;10.024;2022-12-29T05:52:50;93870.56;;;6.68;68.82
27643;BME280;15053;48.618;10.024;2022-12-29T05:55:18;93872.38;;;6.67;69.27
27643;BME280;15053;48.618;10.024;2022-12-29T05:57:49;93858.19;;;6.65;69.24
27643;BME280;15053;48.618;10.024;2022-12-29T06:00:16;93864.09;;;6.65;69.60
27643;BME280;15053;48.618;10.024;2022-12-29T06:02:45;93863.63;;;6.63;69.40
27643;BME280;15053;48.618;10.024;2022-12-29T06:05:14;93859.47;;;6.62;70.18
27643;BME280;15053;48.618;10.024;2022-12-29T06:07:40;93854.28;;;6.62;70.06
27643;BME280;15053;48.618;10.024;2022-12-29T06:10:08;93856.38;;;6.60;69.98
27643;BME280;15053;48.618;10.024;2022-12-29T06:12:48;93855.06;;;6.63;69.93
27643;BME280;15053;48.618;10.024;2022-12-29T06:15:15;93848.63;;;6.60;69.53
27643;BME280;15053;48.618;10.024;2022-12-29T06:17:43;93849.13;;;6.62;69.96
27643;BME280;15053;48.618;10.024;2022-12-29T06:20:10;93850.44;;;6.60;70.43
27643;BME280;15053;48.618;10.024;2022-12-29T06:22:37;93863.66;;;6.58;70.55
27643;BME280;15053;48.618;10.024;2022-12-29T06:25:03;93864.19;;;6.55;71.48
27643;BME280;15053;48.618;10.024;2022-12-29T06:27:33;93867.81;;;6.54;70.68
27643;BME280;15053;48.618;10.024;2022-12-29T06:29:59;93867.06;;;6.53;71.00
27643;BME280;15053;48.618;10.024;2022-12-29T06:32:27;93855.16;;;6.52;71.82
27643;BME280;15053;48.618;10.024;2022-12-29T06:34:59;93853.13;;;6.49;70.86
27643;BME280;15053;48.618;10.024;2022-12-29T06:37:25;93841.22;;;6.48;71.66
27643;BME280;15053;48.618;10.024;2022-12-29T06:39:52;93839.94;;;6.46;71.82
27643;BME280;15053;48.618;10.024;2022-12-29T06:42:19;93843.84;;;6.43;72.08
27643;BME280;15053;48.618;10.024;2022-12-29T06:44:48;93852.91;;;6.41;72.23
27643;BME280;15053;48.618;10.024;2022-12-29T06:47:15;93857.31;;;6.40;72.52
27643;BME280;15053;48.618;10.024;2022-12-29T06:49:42;93840.81;;;6.36;72.68
27643;BME280;15053;48.618;10.024;2022-12-29T06:52:08;93840.47;;;6.43;72.38
27643;BME280;15053;48.618;10.024;2022-12-29T06:54:38;93824.97;;;6.43;72.98
27643;BME280;15053;48.618;10.024;2022-12-29T06:57:05;93815.63;;;6.47;72.71
27643;BME280;15053;48.618;10.024;2022-12-29T06:59:31;93823.13;;;6.48;73.80
27643;BME280;15053;48.618;10.024;2022-12-29T07:01:58;93812.03;;;6.48;73.24
27643;BME280;15053;48.618;10.024;2022-12-29T07:04:24;93817.41;;;6.51;73.61
27643;BME280;15053;48.618;10.024;2022-12-29T07:06:51;93811.44;;;6.56;73.96
27643;BME280;15053;48.618;10.024;2022-12-29T07:09:17;93807.25;;;6.60;73.02
27643;BME280;15053;48.618;10.024;2022-12-29T07:11:44;93816.56;;;6.61;73.57
27643;BME280;15053;48.618;10.024;2022-12-29T07:14:11;93829.50;;;6.61;73.70
27643;BME280;15053;48.618;10.024;2022-12-29T07:16:38;93845.50;;;6.63;73.96
27643;BME280;15053;48.618;10.024;2022-12-29T07:19:04;93842.44;;;6.61;73.76
27643;BME280;15053;48.618;10.024;2022-12-29T07:21:31;93853.75;;;6.65;74.23
27643;BME280;15053;48.618;10.024;2022-12-29T07:23:57;93848.59;;;6.65;74.53
27643;BME280;15053;48.618;10.024;2022-12-29T07:26:24;93857.63;;;6.68;73.62
27643;BME280;15053;48.618;10.024;2022-12-29T07:28:50;93853.56;;;6.62;73.98
27643;BME280;15053;48.618;10.024;2022-12-29T07:31:19;93864.09;;;6.70;74.24
27643;BME280;15053;48.618;10.024;2022-12-29T07:33:46;93865.63;;;6.71;73.96
27643;BME280;15053;48.618;10.024;2022-12-29T07:36:14;93864.84;;;6.71;nan
27643;BME280;15053;48.618;10.024;2022-12-29T07:38:42;93862.25;;;6.71;75.18
27643;BME280;15053;48.618;10.024;2022-12-29T07:41:09;93855.06;;;6.63;74.58
27643;BME280;15053;48.618;10.024;2022-12-29T07:43:35;93862.59;;;6.64;74.97
27643;BME280;15053;48.618;10.024;2022-12-29T07:46:22;93863.13;;;6.61;75.64
27643;BME280;15053;48.618;10.024;2022-12-29T07:49:08;93862.63;;;6.59;75.59
27643;BME280;15053;48.618;10.024;2022-12-29T07:51:35;93864.97;;;6.56;75.76
27643;BME280;15053;48.618;10.024;2022-12-29T07:54:01;93867.81;;;6.59;75.95
27643;BME280;15053;48.618;10.024;2022-12-29T07:56:28;93866.25;;;6.58;76.45
27643;BME280;15053;48.618;10.024;2022-12-29T07:58:54;93862.06;;;6.62;76.65
27643;BME280;15053;48.618;10.024;2022-12-29T08:01:21;93866.19;;;6.63;76.80
27643;BME280;15053;48.618;10.024;2022-12-29T08:03:49;93854.28;;;6.62;77.44
27643;BME280;15053;48.618;10.024;2022-12-29T08:06:22;93864.63;;;6.67;77.69
27643;BME280;15053;48.618;10.024;2022-12-29T08:08:49;93871.63;;;6.67;78.42
27643;BME280;15053;48.618;10.024;2022-12-29T08:11:15;93876.00;;;6.66;77.71
27643;BME280;15053;48.618;10.024;2022-12-29T08:13:42;93876.25;;;6.70;77.98
27643;BME280;15053;48.618;10.024;2022-12-29T08:16:08;93872.84;;;6.74;78.22
27643;BME280;15053;48.618;10.024;2022-12-29T08:18:35;93877.97;;;6.79;78.92
27643;BME280;15053;48.618;10.024;2022-12-29T08:21:03;93890.09;;;6.84;78.52
27643;BME280;15053;48.618;10.024;2022-12-29T08:23:30;93875.84;;;6.86;79.16
27643;BME280;15053;48.618;10.024;2022-12-29T08:26:02;93883.06;;;6.89;78.54
27643;BME280;15053;48.618;10.024;2022-12-29T08:28:29;93903.50;;;6.91;79.00
27643;BME280;15053;48.618;10.024;2022-12-29T08:31:00;93907.09;;;6.95;79.49
27643;BME280;15053;48.618;10.024;2022-12-29T08:33:27;93906.81;;;6.96;79.36
27643;BME280;15053;48.618;10.024;2022-12-29T08:36:05;93897.19;;;7.02;79.58
27643;BME280;15053;48.618;10.024;2022-12-29T08:38:32;93899.00;;;7.01;79.29
27643;BME280;15053;48.618;10.024;2022-12-29T08:40:59;93890.63;;;7.09;79.66
27643;BME280;15053;48.618;10.024;2022-12-29T08:43:28;93898.34;;;7.14;79.49
27643;BME280;15053;48.618;10.024;2022-12-29T08:45:54;93896.47;;;7.20;80.49
27643;BME280;15053;48.618;10.024;2022-12-29T08:48:22;93889.22;;;7.22;79.50
27643;BME280;15053;48.618;10.024;2022-12-29T08:50:49;93882.19;;;7.28;80.18
27643;BME280;15053;48.618;10.024;2022-12-29T08:53:17;93888.09;;;7.33;79.61
27643;BME280;15053;48.618;10.024;2022-12-29T08:55:45;93881.53;;;7.41;79.23
27643;BME280;15053;48.618;10.024;2022-12-29T08:58:13;93907.38;;;7.46;79.23
27643;BME280;15053;48.618;10.024;2022-12-29T09:00:42;93873.06;;;7.54;79.66
27643;BME280;15053;48.618;10.024;2022-12-29T09:03:09;93867.28;;;7.62;79.30
27643;BME280;15053;48.618;10.024;2022-12-29T09:05:36;93882.69;;;7.72;78.98
27643;BME280;15053;48.618;10.024;2022-12-29T09:08:03;93875.84;;;7.81;78.33
27643;BME280;15053;48.618;10.024;2022-12-29T09:10:30;93878.06;;;7.93;77.89
27643;BME280;15053;48.618;10.024;2022-12-29T09:12:57;93890.09;;;8.02;77.43
27643;BME280;15053;48.618;10.024;2022-12-29T09:15:23;93885.06;;;8.11;76.21
27643;BME280;15053;48.618;10.024;2022-12-29T09:17:49;93879.81;;;8.16;76.48
27643;BME280;15053;48.618;10.024;2022-12-29T09:20:18;93883.28;;;8.30;75.94
27643;BME280;15053;48.618;10.024;2022-12-29T09:22:46;93886.78;;;8.39;75.65
27643;BME280;15053;48.618;10.024;2022-12-29T09:25:12;93891.41;;;8.42;75.26
27643;BME280;15053;48.618;10.024;2022-12-29T09:27:39;93892.44;;;8.60;74.94
27643;BME280;15053;48.618;10.024;2022-12-29T09:30:08;93895.47;;;8.67;74.44
27643;BME280;15053;48.618;10.024;2022-12-29T09:32:35;93903.84;;;8.77;74.41
27643;BME280;15053;48.618;10.024;2022-12-29T09:35:09;93890.00;;;8.82;74.26
27643;BME280;15053;48.618;10.024;2022-12-29T09:37:35;93895.75;;;8.79;73.77
27643;BME280;15053;48.618;10.024;2022-12-29T09:40:03;93898.31;;;8.84;74.40
27643;BME280;15053;48.618;10.024;2022-12-29T09:43:03;93904.25;;;8.84;73.93
27643;BME280;15053;48.618;10.024;2022-12-29T09:45:42;93907.63;;;8.85;73.33
27643;BME280;15053;48.618;10.024;2022-12-29T09:48:23;93908.88;;;8.87;73.76
27643;BME280;15053;48.618;10.024;2022-12-29T09:50:55;93902.34;;;8.90;73.52
27643;BME280;15053;48.618;10.024;2022-12-29T09:53:36;93895.84;;;8.93;73.10
27643;BME280;15053;48.618;10.024;2022-12-29T09:56:05;93906.97;;;8.93;73.14
27643;BME280;15053;48.618;10.024;2022-12-29T09:58:42;93904.38;;;8.93;72.74
27643;BME280;15053;48.618;10.024;2022-12-29T10:04:07;93892.28;;;9.02;72.38
27643;BME280;15053;48.618;10.024;2022-12-29T10:06:57;93900.00;;;9.07;72.45
27643;BME280;15053;48.618;10.024;2022-12-29T10:09:56;93897.13;;;9.09;72.42
27643;BME280;15053;48.618;10.024;2022-12-29T10:13:32;93894.78;;;9.07;72.72
27643;BME280;15053;48.618;10.024;2022-12-29T10:16:05;93891.25;;;9.03;73.33
27643;BME280;15053;48.618;10.024;2022-12-29T10:21:22;93880.28;;;9.06;73.73
27643;BME280;15053;48.618;10.024;2022-12-29T10:23:53;93876.03;;;9.10;73.77
27643;BME280;15053;48.618;10.024;2022-12-29T10:26:23;93869.22;;;9.14;73.47
27643;BME280;15053;48.618;10.024;2022-12-29T10:28:57;93875.59;;;9.22;73.74
27643;BME280;15053;48.618;10.024;2022-12-29T10:31:43;93870.28;;;9.27;73.81
27643;BME280;15053;48.618;10.024;2022-12-29T10:34:19;93877.63;;;9.38;73.19
27643;BME280;15053;48.618;10.024;2022-12-29T10:36:49;93869.16;;;9.46;73.25
27643;BME280;15053;48.618;10.024;2022-12-29T10:39:20;93870.59;;;9.53;73.39
27643;BME280;15053;48.618;10.024;2022-12-29T10:41:55;93870.50;;;9.58;72.45
27643;BME280;15053;48.618;10.024;2022-12-29T10:44:28;93856.44;;;9.59;73.14
27643;BME280;15053;48.618;10.024;2022-12-29T10:47:04;93861.25;;;9.65;72.56
27643;BME280;15053;48.618;10.024;2022-12-29T10:49:38;93853.66;;;9.69;72.29
27643;BME280;15053;48.618;10.024;2022-12-29T10:52:06;93857.78;;;9.70;72.53
27643;BME280;15053;48.618;10.024;2022-12-29T10:54:54;93862.97;;;9.70;72.55
27643;BME280;15053;48.618;10.024;2022-12-29T10:57:35;93854.69;;;9.68;72.47
27643;BME280;15053;48.618;10.024;2022-12-29T11:00:22;93855.84;;;9.62;73.07
27643;BME280;15053;48.618;10.024;2022-12-29T11:05:57;93857.78;;;9.56;73.26
27643;BME280;15053;48.618;10.024;2022-12-29T11:08:30;93861.84;;;9.48;73.19
27643;BME280;15053;48.618;10.024;2022-12-29T11:11:02;93864.53;;;9.43;73.86
27643;BME280;15053;48.618;10.024;2022-12-29T11:13:31;93862.50;;;9.40;74.04
27643;BME280;15053;48.618;10.024;2022-12-29T11:16:04;93862.03;;;9.38;74.06
27643;BME280;15053;48.618;10.024;2022-12-29T11:18:38;93859.44;;;9.38;73.77
27643;BME280;15053;48.618;10.024;2022-12-29T11:21:26;93860.47;;;9.37;74.34
27643;BME280;15053;48.618;10.024;2022-12-29T11:24:02;93857.41;;;9.35;nan
27643;BME280;15053;48.618;10.024;2022-12-29T11:26:32;93866.75;;;9.36;74.57
27643;BME280;15053;48.618;10.024;2022-12-29T11:31:43;93870.88;;;9.37;75.28
27643;BME280;15053;48.618;10.024;2022-12-29T11:34:17;93873.19;;;9.39;75.28
27643;BME280;15053;48.618;10.024;2022-12-29T11:36:45;93873.78;;;9.36;75.82
27643;BME280;15053;48.618;10.024;2022-12-29T11:39:27;93864.81;;;9.28;76.45
27643;BME280;15053;48.618;10.024;2022-12-29T11:41:55;93867.91;;;9.30;76.46
27643;BME280;15053;48.618;10.024;2022-12-29T11:44:22;93879.34;;;9.29;76.48
27643;BME280;15053;48.618;10.024;2022-12-29T11:46:51;93867.59;;;9.32;76.38
27643;BME280;15053;48.618;10.024;2022-12-29T11:49:26;93870.41;;;9.35;76.86
27643;BME280;15053;48.618;10.024;2022-12-29T11:51:53;93870.09;;;9.37;76.63
27643;BME280;15053;48.618;10.024;2022-12-29T11:54:27;93867.59;;;9.45;76.88
27643;BME280;15053;48.618;10.024;2022-12-29T11:56:57;93860.31;;;9.47;76.63
27643;BME280;15053;48.618;10.024;2022-12-29T11:59:51;93867.72;;;9.54;76.64
27643;BME280;15053;48.618;10.024;2022-12-29T12:02:37;93865.31;;;9.58;76.79
27643;BME280;15053;48.618;10.024;2022-12-29T12:05:38;93859.81;;;9.59;76.70
27643;BME280;15053;48.618;10.024;2022-12-29T12:10:57;93850.66;;;9.62;78.37
27643;BME280;15053;48.618;10.024;2022-12-29T12:13:32;93854.81;;;9.63;77.74
27643;BME280;15053;48.618;10.024;2022-12-29T12:16:21;93853.84;;;9.72;77.94
27643;BME280;15053;48.618;10.024;2022-12-29T12:18:57;93841.22;;;9.79;77.84
27643;BME280;15053;48.618;10.024;2022-12-29T12:21:34;93833.09;;;9.81;77.82
27643;BME280;15053;48.618;10.024;2022-12-29T12:30:07;93828.97;;;9.93;77.75
27643;BME280;15053;48.618;10.024;2022-12-29T12:35:44;93828.25;;;10.01;77.08
27643;BME280;15053;48.618;10.024;2022-12-29T12:38:34;93823.84;;;10.02;77.68
27643;BME280;15053;48.618;10.024;2022-12-29T12:41:17;93823.84;;;10.02;77.59
27643;BME280;15053;48.618;10.024;2022-12-29T12:49:57;93829.31;;;10.00;77.09
27643;BME280;15053;48.618;10.024;2022-12-29T12:55:37;93830.97;;;9.96;77.34
27643;BME280;15053;48.618;10.024;2022-12-29T12:58:33;93831.75;;;9.97;77.84
27643;BME280;15053;48.618;10.024;2022-12-29T13:04:44;93828.50;;;9.91;78.43
27643;BME280;15053;48.618;10.024;2022-12-29T13:12:49;93833.88;;;9.81;80.05
27643;BME280;15053;48.618;10.024;2022-12-29T13:20:41;93840.19;;;9.67;82.28
27643;BME280;15053;48.618;10.024;2022-12-29T13:23:25;93827.75;;;9.64;82.40
27643;BME280;15053;48.618;10.024;2022-12-29T13:26:16;93828.81;;;9.63;82.80
27643;BME280;15053;48.618;10.024;2022-12-29T13:32:05;93829.09;;;9.61;83.80
27643;BME280;15053;48.618;10.024;2022-12-29T13:34:46;93837.19;;;9.60;83.96
27643;BME280;15053;48.618;10.024;2022-12-29T13:37:18;93827.84;;;9.59;83.92
27643;BME280;15053;48.618;10.024;2022-12-29T13:39:54;93829.69;;;9.58;84.05
27643;BME280;15053;48.618;10.024;2022-12-29T13:42:23;93831.78;;;9.56;84.31
27643;BME280;15053;48.618;10.024;2022-12-29T13:44:57;93834.38;;;9.56;84.48
27643;BME280;15053;48.618;10.024;2022-12-29T13:47:39;93840.84;;;9.59;84.95
27643;BME280;15053;48.618;10.024;2022-12-29T13:50:17;93841.59;;;9.59;85.40
27643;BME280;15053;48.618;10.024;2022-12-29T13:55:27;93843.16;;;9.60;85.21
27643;BME280;15053;48.618;10.024;2022-12-29T13:58:16;93835.06;;;9.62;85.38
27643;BME280;15053;48.618;10.024;2022-12-29T14:00:53;93832.19;;;9.63;85.45
27643;BME280;15053;48.618;10.024;2022-12-29T14:03:40;93829.00;;;9.66;85.49
27643;BME280;15053;48.618;10.024;2022-12-29T14:06:28;93831.03;;;9.69;85.45
27643;BME280;15053;48.618;10.024;2022-12-29T14:09:00;93820.31;;;9.71;85.52
27643;BME280;15053;48.618;10.024;2022-12-29T14:11:33;93823.88;;;9.75;85.60
27643;BME280;15053;48.618;10.024;2022-12-29T14:14:13;93825.03;;;9.82;85.54
27643;BME280;15053;48.618;10.024;2022-12-29T14:16:40;93816.34;;;9.87;85.59
27643;BME280;15053;48.618;10.024;2022-12-29T14:19:16;93824.00;;;10.05;85.49
27643;BME280;15053;48.618;10.024;2022-12-29T14:22:02;93821.50;;;10.14;85.06
27643;BME280;15053;48.618;10.024;2022-12-29T14:26:59;93827.25;;;10.11;85.04
27643;BME280;15053;48.618;10.024;2022-12-29T14:31:52;93823.25;;;10.05;84.83
27643;BME280;15053;48.618;10.024;2022-12-29T14:34:27;93825.94;;;10.00;84.96
27643;BME280;15053;48.618;10.024;2022-12-29T14:36:57;93824.53;;;9.94;84.90
27643;BME280;15053;48.618;10.024;2022-12-29T14:39:54;93828.75;;;9.90;85.08
27643;BME280;15053;48.618;10.024;2022-12-29T14:42:29;93829.66;;;9.85;85.46
27643;BME280;15053;48.618;10.024;2022-12-29T14:45:24;93836.19;;;9.83;85.52
27643;BME280;15053;48.618;10.024;2022-12-29T14:47:53;93831.00;;;9.83;85.54